Time;durP1;ratioP1;P1;durP2;ratioP2;P2;SDS_P1;SDS_P2;PMS_P1;PMS_P2;Temp;Humidity;BMP_temperature;BMP_pressure;BME280_temperature;BME280_humidity;BME280_pressure;Samples;Min_cycle;Max_cycle;Signal;HPM_P1;HPM_P2
2022/11/04 00:00:38;;;;;;;;;;;;;;;16.15;74.82;99663.00;1297765;22;571;-80
2022/11/04 00:01:28;;;;;;;;;;;;;;;16.15;74.37;99661.16;1298133;22;684;-79
2022/11/04 00:02:19;;;;;;;;;;;;;;;16.11;74.89;99667.91;1297579;22;613;-79
2022/11/04 00:03:09;;;;;;;;;;;;;;;16.08;74.97;99670.91;1297872;22;665;-79
2022/11/04 00:04:00;;;;;;;;;;;;;;;16.08;74.85;99670.06;1297825;22;642;-78
2022/11/04 00:04:50;;;;;;;;;;;;;;;15.96;75.62;99666.81;1297753;22;613;-80
2022/11/04 00:05:40;;;;;;;;;;;;;;;16.06;75.26;99669.38;1297682;22;1900;-80
2022/11/04 00:06:31;;;;;;;;;;;;;;;16.15;75.17;99679.13;1297926;22;661;-79
2022/11/04 00:08:35;;;;;;;;;;;;;;;16.16;74.32;99676.28;1279544;23;677;-80
2022/11/04 00:09:26;;;;;;;;;;;;;;;16.13;74.92;99676.63;1278574;23;597;-79
2022/11/04 00:12:23;;;;;;;;;;;;;;;16.14;74.96;99675.59;1278570;23;677;-79
2022/11/04 00:12:35;;;;;;;;;;;;;;;16.13;74.98;99676.63;1278209;23;1650;-80
2022/11/04 00:13:26;;;;;;;;;;;;;;;16.21;74.72;99682.03;1280173;23;816;-79
2022/11/04 00:14:16;;;;;;;;;;;;;;;16.13;74.97;99679.31;1278700;23;618;-79
2022/11/04 00:17:26;;;;;;;;;;;;;;;15.90;75.64;99691.66;1278433;23;684;-79
2022/11/04 00:18:16;;;;;;;;;;;;;;;15.75;74.18;99686.06;1278629;23;673;-80
2022/11/04 00:19:07;;;;;;;;;;;;;;;15.80;76.27;99686.41;1278492;23;588;-80
2022/11/04 00:29:03;;;;;;;;;;;;;;;15.72;76.24;99705.19;1278217;23;571;-79
2022/11/04 00:29:53;;;;;;;;;;;;;;;15.87;76.14;99713.47;1278529;23;598;-79
2022/11/04 00:30:44;;;;;;;;;;;;;;;15.95;75.68;99717.03;1278364;23;594;-79
2022/11/04 00:33:52;;;;;;;;;;;;;;;16.07;75.16;99720.28;1278504;23;680;-79
2022/11/04 00:34:42;;;;;;;;;;;;;;;16.00;74.30;99729.16;1275006;23;622;-79
2022/11/04 00:35:33;;;;;;;;;;;;;;;15.86;74.90;99723.38;1273175;23;641;-78
2022/11/04 00:36:23;;;;;;;;;;;;;;;15.80;74.90;99725.84;1278605;23;665;-78
2022/11/04 00:37:14;;;;;;;;;;;;;;;15.86;75.93;99725.22;1278233;23;645;-78
2022/11/04 00:38:04;;;;;;;;;;;;;;;15.99;75.53;99720.25;1278515;23;760;-78
2022/11/04 00:38:55;;;;;;;;;;;;;;;16.00;75.19;99716.56;1278434;23;676;-78
2022/11/04 00:39:45;;;;;;;;;;;;;;;15.88;74.25;99721.38;1278487;23;1063;-77
2022/11/04 00:40:35;;;;;;;;;;;;;;;15.95;75.89;99718.88;1278498;23;670;-78
2022/11/04 00:41:26;;;;;;;;;;;;;;;16.00;75.76;99719.25;1278378;23;650;-78
2022/11/04 00:42:16;;;;;;;;;;;;;;;15.87;75.34;99714.31;1278558;23;676;-78
2022/11/04 00:43:07;;;;;;;;;;;;;;;15.89;76.17;99722.22;1278430;23;637;-78
2022/11/04 00:43:57;;;;;;;;;;;;;;;15.98;75.80;99718.56;1278480;23;626;-78
2022/11/04 00:44:48;;;;;;;;;;;;;;;16.07;75.79;99725.66;1278186;23;719;-78
2022/11/04 00:45:38;;;;;;;;;;;;;;;16.13;75.02;99726.84;1278445;23;1881;-78
2022/11/04 00:46:29;;;;;;;;;;;;;;;16.13;75.20;99733.06;1288680;22;1122;-77
2022/11/04 00:47:19;;;;;;;;;;;;;;;16.16;75.20;99724.66;1297945;22;605;-78
2022/11/04 00:48:09;;;;;;;;;;;;;;;16.13;75.14;99724.16;1297508;22;666;-77
2022/11/04 00:49:00;;;;;;;;;;;;;;;16.14;75.13;99731.22;1297892;22;672;-77
2022/11/04 00:49:50;;;;;;;;;;;;;;;16.15;74.73;99731.06;1297792;22;653;-79
2022/11/04 00:50:41;;;;;;;;;;;;;;;16.15;75.10;99733.75;1297595;22;1283;-79
2022/11/04 00:51:31;;;;;;;;;;;;;;;16.05;73.52;99740.25;1297877;22;641;-79
2022/11/04 00:52:22;;;;;;;;;;;;;;;15.84;73.91;99744.19;1297715;22;776;-79
2022/11/04 00:53:12;;;;;;;;;;;;;;;15.90;76.18;99742.72;1297799;22;698;-79
2022/11/04 00:54:02;;;;;;;;;;;;;;;15.96;75.85;99748.28;1297544;22;621;-79
2022/11/04 00:54:53;;;;;;;;;;;;;;;15.76;74.17;99743.31;1297753;22;639;-79
2022/11/04 00:55:43;;;;;;;;;;;;;;;15.78;74.03;99739.44;1297869;22;664;-79
2022/11/04 00:56:34;;;;;;;;;;;;;;;15.87;75.88;99748.41;1297797;22;624;-79
2022/11/04 00:57:24;;;;;;;;;;;;;;;15.94;75.23;99749.47;1297788;22;617;-80
2022/11/04 00:58:15;;;;;;;;;;;;;;;15.91;75.27;99752.47;1297784;22;660;-79
2022/11/04 00:59:05;;;;;;;;;;;;;;;15.90;74.64;99753.47;1297806;22;640;-79
2022/11/04 00:59:59;;;;;;;;;;;;;;;15.77;75.20;99745.81;1297693;22;648;-79
2022/11/04 01:00:49;;;;;;;;;;;;;;;15.65;74.61;99747.09;1297798;22;605;-79
2022/11/04 01:01:40;;;;;;;;;;;;;;;15.43;75.22;99751.13;1297183;22;657;-79
2022/11/04 01:02:30;;;;;;;;;;;;;;;15.48;73.99;99751.50;1297655;22;629;-80
2022/11/04 01:03:20;;;;;;;;;;;;;;;15.39;74.92;99751.63;1297984;22;608;-80
2022/11/04 01:04:11;;;;;;;;;;;;;;;15.46;76.46;99750.81;1297742;22;644;-79
2022/11/04 01:05:01;;;;;;;;;;;;;;;15.63;75.62;99758.00;1297880;22;645;-78
2022/11/04 01:05:52;;;;;;;;;;;;;;;15.62;73.70;99759.00;1297609;22;1998;-78
2022/11/04 01:06:42;;;;;;;;;;;;;;;15.71;75.07;99759.06;1297889;22;691;-78
2022/11/04 01:07:33;;;;;;;;;;;;;;;15.60;73.50;99755.63;1297562;22;625;-78
2022/11/04 01:08:23;;;;;;;;;;;;;;;15.72;75.76;99755.38;1297752;22;668;-79
2022/11/04 01:09:13;;;;;;;;;;;;;;;15.85;75.38;99759.31;1297760;22;664;-80
2022/11/04 01:10:04;;;;;;;;;;;;;;;15.91;74.76;99764.06;1297804;22;625;-80
2022/11/04 01:10:54;;;;;;;;;;;;;;;15.71;74.33;99762.59;1297803;22;653;-80
2022/11/04 01:11:45;;;;;;;;;;;;;;;15.74;75.88;99756.06;1297272;22;681;-79
2022/11/04 01:12:35;;;;;;;;;;;;;;;15.70;74.45;99766.28;1297689;22;700;-79
2022/11/04 01:13:25;;;;;;;;;;;;;;;15.65;75.70;99773.13;1297640;22;668;-79
2022/11/04 01:14:16;;;;;;;;;;;;;;;15.55;74.19;99774.09;1297750;22;617;-79
2022/11/04 01:15:06;;;;;;;;;;;;;;;15.57;74.62;99765.88;1298036;22;633;-79
2022/11/04 01:15:57;;;;;;;;;;;;;;;15.77;75.81;99777.22;1297066;22;648;-79
2022/11/04 01:16:47;;;;;;;;;;;;;;;15.83;74.92;99776.59;1297752;22;688;-80
2022/11/04 01:17:38;;;;;;;;;;;;;;;15.83;75.05;99788.19;1297703;22;660;-79
2022/11/04 01:18:28;;;;;;;;;;;;;;;15.93;75.17;99794.28;1297805;22;602;-79
2022/11/04 01:19:18;;;;;;;;;;;;;;;15.99;75.31;99782.03;1297667;22;635;-79
2022/11/04 01:20:09;;;;;;;;;;;;;;;15.64;73.18;99783.00;1297614;22;632;-78
2022/11/04 01:20:59;;;;;;;;;;;;;;;15.75;75.81;99779.25;1297837;22;652;-78
2022/11/04 01:21:50;;;;;;;;;;;;;;;15.72;74.33;99787.63;1297589;22;665;-77
2022/11/04 01:22:40;;;;;;;;;;;;;;;15.71;75.76;99784.09;1297907;22;636;-78
2022/11/04 01:23:31;;;;;;;;;;;;;;;15.77;74.48;99790.66;1297674;22;601;-78
2022/11/04 01:24:21;;;;;;;;;;;;;;;15.88;75.53;99793.06;1297962;22;633;-78
2022/11/04 01:25:12;;;;;;;;;;;;;;;15.96;74.84;99787.72;1297605;22;664;-78
2022/11/04 01:26:02;;;;;;;;;;;;;;;15.96;75.11;99793.09;1297759;22;672;-79
2022/11/04 01:26:53;;;;;;;;;;;;;;;15.99;74.76;99790.09;1297768;22;641;-78
2022/11/04 01:27:43;;;;;;;;;;;;;;;16.01;75.01;99796.16;1297738;22;629;-79
2022/11/04 01:28:33;;;;;;;;;;;;;;;15.98;74.70;99793.78;1297869;22;696;-78
2022/11/04 01:29:24;;;;;;;;;;;;;;;15.91;73.26;99804.34;1297698;22;629;-79
2022/11/04 01:30:14;;;;;;;;;;;;;;;15.61;73.29;99797.59;1297817;22;681;-78
2022/11/04 01:31:05;;;;;;;;;;;;;;;15.72;75.86;99796.50;1297631;22;613;-78
2022/11/04 01:31:55;;;;;;;;;;;;;;;15.87;75.92;99799.44;1297751;22;688;-79
2022/11/04 01:32:46;;;;;;;;;;;;;;;15.71;73.82;99805.56;1297611;22;636;-78
2022/11/04 01:33:36;;;;;;;;;;;;;;;15.70;75.20;99803.03;1297800;22;671;-78
2022/11/04 01:34:26;;;;;;;;;;;;;;;15.63;75.74;99809.03;1298605;22;652;-78
2022/11/04 01:35:17;;;;;;;;;;;;;;;15.43;73.76;99801.28;1297644;22;677;-78
2022/11/04 01:36:07;;;;;;;;;;;;;;;15.46;76.34;99807.19;1297872;22;862;-78
2022/11/04 01:36:58;;;;;;;;;;;;;;;15.67;76.08;99814.94;1297667;22;617;-78
2022/11/04 01:37:48;;;;;;;;;;;;;;;15.74;74.93;99809.78;1297716;22;882;-78
2022/11/04 01:38:38;;;;;;;;;;;;;;;15.63;74.01;99809.03;1297609;22;625;-78
2022/11/04 01:39:29;;;;;;;;;;;;;;;15.52;76.09;99811.94;1297638;22;645;-78
2022/11/04 01:40:19;;;;;;;;;;;;;;;15.69;75.92;99812.09;1297876;22;652;-78
2022/11/04 01:41:10;;;;;;;;;;;;;;;15.79;74.73;99813.66;1297694;22;644;-79
2022/11/04 01:42:00;;;;;;;;;;;;;;;15.65;75.90;99813.41;1297752;22;792;-78
2022/11/04 01:42:51;;;;;;;;;;;;;;;15.62;75.15;99827.97;1297440;22;704;-79
2022/11/04 01:43:41;;;;;;;;;;;;;;;15.56;75.96;99817.88;1297722;22;637;-78
2022/11/04 01:44:31;;;;;;;;;;;;;;;15.58;74.53;99815.91;1297684;22;645;-78
2022/11/04 01:45:22;;;;;;;;;;;;;;;15.65;73.70;99821.47;1297812;22;625;-79
2022/11/04 01:46:12;;;;;;;;;;;;;;;15.46;74.73;99823.31;1297844;22;659;-79
2022/11/04 01:47:03;;;;;;;;;;;;;;;15.48;75.24;99815.94;1297681;22;632;-79
2022/11/04 01:47:53;;;;;;;;;;;;;;;15.43;75.44;99823.59;1297806;22;633;-78
2022/11/04 01:48:44;;;;;;;;;;;;;;;15.68;75.98;99823.84;1297761;22;676;-78
2022/11/04 01:49:34;;;;;;;;;;;;;;;15.82;75.56;99824.09;1297661;22;708;-78
2022/11/04 01:50:24;;;;;;;;;;;;;;;15.82;75.69;99817.88;1297857;22;661;-79
2022/11/04 01:51:15;;;;;;;;;;;;;;;15.90;75.19;99821.47;1297677;22;664;-79
2022/11/04 01:52:05;;;;;;;;;;;;;;;15.88;75.08;99822.63;1297738;22;633;-79
2022/11/04 01:52:56;;;;;;;;;;;;;;;15.95;75.09;99818.28;1297620;22;755;-79
2022/11/04 01:53:46;;;;;;;;;;;;;;;15.87;73.76;99821.78;1297659;22;684;-78
2022/11/04 01:54:37;;;;;;;;;;;;;;;15.86;75.47;99816.56;1298655;22;628;-79
2022/11/04 01:55:27;;;;;;;;;;;;;;;15.88;75.50;99817.25;1297566;22;644;-79
2022/11/04 01:56:19;;;;;;;;;;;;;;;15.94;75.19;99827.38;1297694;22;661;-79
2022/11/04 01:57:09;;;;;;;;;;;;;;;15.97;75.40;99829.72;1298374;22;675;-79
2022/11/04 01:58:00;;;;;;;;;;;;;;;16.00;75.28;99834.78;1297580;22;617;-79
2022/11/04 01:58:50;;;;;;;;;;;;;;;15.89;75.23;99835.06;1297783;22;672;-79
2022/11/04 01:59:41;;;;;;;;;;;;;;;15.91;75.41;99835.75;1297057;22;641;-79
2022/11/04 02:00:31;;;;;;;;;;;;;;;15.84;75.54;99837.38;1297665;22;629;-78
2022/11/04 02:01:22;;;;;;;;;;;;;;;15.88;75.78;99841.44;1297619;22;832;-78
2022/11/04 02:02:12;;;;;;;;;;;;;;;15.91;75.23;99838.44;1297697;22;707;-77
2022/11/04 02:03:03;;;;;;;;;;;;;;;15.78;74.67;99841.53;1297459;22;943;-80
2022/11/04 02:03:53;;;;;;;;;;;;;;;15.66;76.07;99844.63;1297635;22;676;-78
2022/11/04 02:04:44;;;;;;;;;;;;;;;15.66;76.18;99842.78;1297609;22;681;-80
2022/11/04 02:05:34;;;;;;;;;;;;;;;15.82;75.59;99842.06;1297549;22;1909;-80
2022/11/04 02:06:24;;;;;;;;;;;;;;;15.73;75.50;99845.72;1297733;22;688;-78
2022/11/04 02:07:15;;;;;;;;;;;;;;;15.77;75.95;99847.91;1297604;22;630;-80
2022/11/04 02:08:05;;;;;;;;;;;;;;;15.84;75.65;99850.81;1297761;22;692;-79
2022/11/04 02:08:56;;;;;;;;;;;;;;;15.60;73.85;99855.00;1297394;22;618;-81
2022/11/04 02:09:46;;;;;;;;;;;;;;;15.65;75.69;99851.00;1297680;22;594;-78
2022/11/04 02:10:37;;;;;;;;;;;;;;;15.55;75.00;99854.63;1297563;22;660;-79
2022/11/04 02:12:49;;;;;;;;;;;;;;;15.34;75.90;99854.09;1296068;22;650;-79
2022/11/04 02:13:39;;;;;;;;;;;;;;;15.47;76.57;99862.59;1297733;22;1004;-79
2022/11/04 02:14:29;;;;;;;;;;;;;;;15.45;74.21;99859.22;1297692;22;633;-79
2022/11/04 02:15:20;;;;;;;;;;;;;;;15.34;73.41;99861.28;1297545;22;624;-81
2022/11/04 02:16:10;;;;;;;;;;;;;;;15.46;73.91;99855.53;1297738;22;672;-80
2022/11/04 02:17:01;;;;;;;;;;;;;;;15.56;76.04;99861.69;1297582;22;614;-80
2022/11/04 02:17:51;;;;;;;;;;;;;;;15.73;75.76;99856.44;1297492;22;680;-80
2022/11/04 02:18:42;;;;;;;;;;;;;;;15.83;75.56;99862.56;1297776;22;692;-80
2022/11/04 02:19:32;;;;;;;;;;;;;;;15.60;73.30;99857.69;1297595;22;605;-80
2022/11/04 02:20:22;;;;;;;;;;;;;;;15.52;75.33;99864.81;1297692;22;641;-80
2022/11/04 02:21:13;;;;;;;;;;;;;;;15.66;75.77;99860.75;1297631;22;629;-80
2022/11/04 02:22:03;;;;;;;;;;;;;;;15.49;73.80;99863.28;1297686;22;680;-80
2022/11/04 02:22:54;;;;;;;;;;;;;;;15.57;76.08;99857.19;1297387;22;660;-80
2022/11/04 02:23:44;;;;;;;;;;;;;;;15.63;75.68;99856.53;1297483;22;617;-79
2022/11/04 02:24:34;;;;;;;;;;;;;;;15.73;75.38;99862.66;1297722;22;637;-79
2022/11/04 02:25:25;;;;;;;;;;;;;;;15.77;75.23;99864.03;1297601;22;621;-79
2022/11/04 02:26:15;;;;;;;;;;;;;;;15.85;75.41;99858.72;1297772;22;644;-79
2022/11/04 02:27:06;;;;;;;;;;;;;;;15.78;75.73;99859.50;1297529;22;653;-79
2022/11/04 02:27:56;;;;;;;;;;;;;;;15.81;75.11;99862.72;1297535;22;648;-79
2022/11/04 02:28:47;;;;;;;;;;;;;;;15.84;75.44;99867.78;1297717;22;652;-79
2022/11/04 02:29:37;;;;;;;;;;;;;;;15.89;75.37;99867.31;1297730;22;661;-79
2022/11/04 02:30:27;;;;;;;;;;;;;;;15.91;75.00;99874.22;1297722;22;672;-79
2022/11/04 02:31:18;;;;;;;;;;;;;;;15.93;75.18;99872.22;1297700;22;668;-79
2022/11/04 02:32:08;;;;;;;;;;;;;;;15.84;74.75;99869.63;1297572;22;684;-80
2022/11/04 02:32:59;;;;;;;;;;;;;;;15.90;75.51;99877.06;1296991;22;597;-80
2022/11/04 02:33:49;;;;;;;;;;;;;;;15.78;74.75;99873.75;1296292;22;625;-79
2022/11/04 02:34:39;;;;;;;;;;;;;;;15.84;75.47;99875.84;1296902;22;676;-80
2022/11/04 02:35:30;;;;;;;;;;;;;;;15.62;72.82;99882.53;1297546;22;621;-80
2022/11/04 02:36:20;;;;;;;;;;;;;;;15.54;73.16;99885.16;1297286;22;695;-79
2022/11/04 02:37:11;;;;;;;;;;;;;;;15.53;75.63;99886.16;1296247;22;617;-79
2022/11/04 02:38:01;;;;;;;;;;;;;;;15.49;76.53;99890.13;1296819;22;688;-79
2022/11/04 02:38:52;;;;;;;;;;;;;;;15.46;75.03;99895.81;1297296;22;551;-80
2022/11/04 02:39:43;;;;;;;;;;;;;;;15.48;76.59;99891.13;1297609;22;654;-80
2022/11/04 02:40:33;;;;;;;;;;;;;;;15.42;73.74;99891.72;1297633;22;727;-80
2022/11/04 02:41:23;;;;;;;;;;;;;;;15.60;76.41;99897.97;1297827;22;644;-80
2022/11/04 02:42:14;;;;;;;;;;;;;;;15.60;73.60;99900.66;1297510;22;629;-80
2022/11/04 02:43:04;;;;;;;;;;;;;;;15.62;76.11;99898.66;1297082;22;715;-80
2022/11/04 02:43:55;;;;;;;;;;;;;;;15.63;74.75;99900.34;1297587;22;633;-80
2022/11/04 02:44:45;;;;;;;;;;;;;;;15.56;76.18;99904.66;1297563;22;625;-81
2022/11/04 02:45:36;;;;;;;;;;;;;;;15.43;75.85;99904.16;1297527;22;1897;-80
2022/11/04 02:46:26;;;;;;;;;;;;;;;15.42;74.64;99904.31;1297483;22;942;-81
2022/11/04 02:47:16;;;;;;;;;;;;;;;15.57;76.43;99905.50;1297746;22;660;-81
2022/11/04 02:48:07;;;;;;;;;;;;;;;15.61;75.31;99906.88;1297488;22;604;-81
2022/11/04 02:48:57;;;;;;;;;;;;;;;15.60;75.67;99906.03;1297708;22;703;-81
2022/11/04 02:49:48;;;;;;;;;;;;;;;15.74;75.98;99907.34;1297353;22;687;-80
2022/11/04 02:50:38;;;;;;;;;;;;;;;15.58;76.28;99900.00;1297379;22;1059;-80
2022/11/04 02:51:28;;;;;;;;;;;;;;;15.60;75.44;99902.50;1297660;22;624;-80
2022/11/04 02:52:19;;;;;;;;;;;;;;;15.62;76.12;99904.03;1297587;22;628;-80
2022/11/04 02:53:09;;;;;;;;;;;;;;;15.68;75.50;99899.03;1297510;22;616;-80
2022/11/04 02:54:00;;;;;;;;;;;;;;;15.56;74.36;99903.81;1297381;22;625;-80
2022/11/04 02:54:50;;;;;;;;;;;;;;;15.56;76.23;99901.13;1297570;22;672;-80
2022/11/04 02:55:41;;;;;;;;;;;;;;;15.63;75.92;99908.41;1297456;22;605;-80
2022/11/04 02:56:31;;;;;;;;;;;;;;;15.42;73.69;99902.47;1297532;22;653;-80
2022/11/04 02:57:21;;;;;;;;;;;;;;;15.44;75.36;99897.78;1297115;22;688;-80
2022/11/04 02:58:12;;;;;;;;;;;;;;;15.52;76.10;99913.16;1297490;22;613;-80
2022/11/04 02:59:02;;;;;;;;;;;;;;;15.66;76.09;99901.88;1297478;22;653;-80
2022/11/04 02:59:53;;;;;;;;;;;;;;;15.79;75.57;99901.47;1297102;22;655;-81
2022/11/04 03:00:43;;;;;;;;;;;;;;;15.87;75.46;99898.88;1296166;22;671;-81
2022/11/04 03:01:34;;;;;;;;;;;;;;;15.84;75.05;99897.31;1297103;22;624;-80
2022/11/04 03:02:24;;;;;;;;;;;;;;;15.70;75.09;99897.91;1297414;22;656;-79
2022/11/04 03:03:15;;;;;;;;;;;;;;;15.76;75.81;99899.13;1297588;22;668;-79
2022/11/04 03:04:05;;;;;;;;;;;;;;;15.71;75.20;99898.75;1297524;22;640;-79
2022/11/04 03:04:55;;;;;;;;;;;;;;;15.78;75.66;99903.31;1297606;22;668;-80
2022/11/04 03:05:46;;;;;;;;;;;;;;;15.85;75.50;99895.47;1297404;22;1938;-79
2022/11/04 03:06:36;;;;;;;;;;;;;;;15.87;75.55;99909.59;1297720;22;672;-79
2022/11/04 03:07:27;;;;;;;;;;;;;;;15.88;75.55;99911.28;1298451;22;680;-80
2022/11/04 03:08:17;;;;;;;;;;;;;;;15.91;75.43;99905.63;1297572;22;613;-80
2022/11/04 03:09:08;;;;;;;;;;;;;;;15.92;75.21;99907.31;1297564;22;652;-80
2022/11/04 03:09:58;;;;;;;;;;;;;;;15.94;75.32;99908.81;1297598;22;641;-79
2022/11/04 03:10:48;;;;;;;;;;;;;;;15.91;75.65;99913.69;1297658;22;640;-80
2022/11/04 03:11:39;;;;;;;;;;;;;;;15.91;75.47;99913.69;1297578;22;640;-80
2022/11/04 03:12:29;;;;;;;;;;;;;;;15.91;75.40;99916.38;1297607;22;692;-80
2022/11/04 03:13:20;;;;;;;;;;;;;;;15.92;75.68;99920.75;1297369;22;613;-79
2022/11/04 03:14:10;;;;;;;;;;;;;;;15.92;75.44;99904.63;1297476;22;609;-79
2022/11/04 03:15:01;;;;;;;;;;;;;;;15.91;75.34;99914.53;1297325;22;632;-79
2022/11/04 03:15:51;;;;;;;;;;;;;;;15.90;75.44;99920.06;1297538;22;652;-79
2022/11/04 03:16:42;;;;;;;;;;;;;;;15.89;75.37;99916.53;1297658;22;691;-80
2022/11/04 03:17:33;;;;;;;;;;;;;;;15.87;75.61;99912.28;1297562;22;633;-79
2022/11/04 03:18:24;;;;;;;;;;;;;;;15.90;75.48;99920.91;1297428;22;794;-79
2022/11/04 03:19:14;;;;;;;;;;;;;;;15.89;75.52;99910.31;1297513;22;605;-79
2022/11/04 03:20:05;;;;;;;;;;;;;;;15.91;75.70;99921.75;1297648;22;669;-79
2022/11/04 03:20:55;;;;;;;;;;;;;;;15.90;75.41;99918.22;1297482;22;648;-79
2022/11/04 03:21:46;;;;;;;;;;;;;;;15.95;75.50;99912.34;1297406;22;665;-79
2022/11/04 03:22:36;;;;;;;;;;;;;;;15.94;75.30;99918.75;1297457;22;660;-79
2022/11/04 03:23:27;;;;;;;;;;;;;;;15.94;75.48;99918.75;1297619;22;632;-80
2022/11/04 03:24:17;;;;;;;;;;;;;;;15.91;75.39;99911.84;1297433;22;602;-79
2022/11/04 03:25:07;;;;;;;;;;;;;;;15.94;75.28;99922.25;1297604;22;673;-79
2022/11/04 03:25:58;;;;;;;;;;;;;;;15.93;75.12;99922.44;1297236;22;1881;-78
2022/11/04 03:26:48;;;;;;;;;;;;;;;15.94;75.10;99918.75;1297433;22;617;-78
2022/11/04 03:27:39;;;;;;;;;;;;;;;15.95;75.71;99926.63;1297421;22;602;-78
2022/11/04 03:28:29;;;;;;;;;;;;;;;15.95;75.77;99925.78;1297478;22;625;-78
2022/11/04 03:29:20;;;;;;;;;;;;;;;15.92;75.64;99928.81;1297241;22;662;-78
2022/11/04 03:30:10;;;;;;;;;;;;;;;15.92;75.21;99920.75;1296141;22;601;-78
2022/11/04 03:31:01;;;;;;;;;;;;;;;15.94;75.36;99924.94;1296856;22;645;-78
2022/11/04 03:31:51;;;;;;;;;;;;;;;15.96;75.12;99925.63;1297691;22;621;-78
2022/11/04 03:32:41;;;;;;;;;;;;;;;15.96;75.79;99917.56;1297654;22;637;-78
2022/11/04 03:33:32;;;;;;;;;;;;;;;15.96;75.50;99927.47;1297413;22;633;-78
2022/11/04 03:34:22;;;;;;;;;;;;;;;15.96;75.61;99932.84;1297553;22;727;-79
2022/11/04 03:35:13;;;;;;;;;;;;;;;15.94;75.89;99933.00;1297524;22;601;-79
2022/11/04 03:36:03;;;;;;;;;;;;;;;15.94;75.73;99934.88;1297494;22;688;-79
2022/11/04 03:36:54;;;;;;;;;;;;;;;15.95;75.38;99931.16;1296575;22;1105;-79
2022/11/04 03:37:44;;;;;;;;;;;;;;;15.92;75.54;99932.34;1297122;22;657;-79
2022/11/04 03:38:34;;;;;;;;;;;;;;;15.94;75.76;99938.38;1297991;22;676;-79
2022/11/04 03:39:25;;;;;;;;;;;;;;;15.92;75.51;99942.25;1297835;22;586;-79
2022/11/04 03:40:15;;;;;;;;;;;;;;;15.92;75.54;99937.72;1297913;22;687;-79
2022/11/04 03:41:06;;;;;;;;;;;;;;;15.93;75.47;99936.72;1297345;22;637;-79
2022/11/04 03:41:56;;;;;;;;;;;;;;;15.96;75.77;99943.59;1297973;22;606;-80
2022/11/04 03:42:47;;;;;;;;;;;;;;;15.96;75.45;99949.81;1297843;22;517;-79
2022/11/04 03:43:37;;;;;;;;;;;;;;;15.94;75.46;99946.44;1297839;22;613;-79
2022/11/04 03:44:27;;;;;;;;;;;;;;;15.93;75.58;99944.78;1297941;22;622;-79
2022/11/04 03:45:18;;;;;;;;;;;;;;;15.95;75.39;99945.44;1297991;22;617;-80
2022/11/04 03:46:08;;;;;;;;;;;;;;;15.93;75.50;99938.56;1297850;22;691;-79
2022/11/04 03:46:59;;;;;;;;;;;;;;;15.95;75.23;99948.13;1297776;22;609;-79
2022/11/04 03:47:49;;;;;;;;;;;;;;;15.93;75.62;99950.16;1297782;22;617;-79
2022/11/04 03:48:40;;;;;;;;;;;;;;;15.93;75.24;99949.31;1298113;22;628;-80
2022/11/04 03:49:31;;;;;;;;;;;;;;;15.92;75.29;99947.59;1297809;22;633;-79
2022/11/04 03:50:21;;;;;;;;;;;;;;;15.91;75.43;99946.75;1297956;22;632;-79
2022/11/04 03:51:12;;;;;;;;;;;;;;;15.93;75.41;99950.16;1298053;22;632;-79
2022/11/04 03:52:02;;;;;;;;;;;;;;;15.94;75.23;99956.38;1297895;22;609;-80
2022/11/04 03:52:52;;;;;;;;;;;;;;;15.95;75.34;99952.66;1297905;22;704;-80
2022/11/04 03:53:43;;;;;;;;;;;;;;;15.95;75.49;99956.19;1297442;22;672;-80
2022/11/04 03:54:35;;;;;;;;;;;;;;;15.96;74.77;99948.97;1296715;22;613;-79
2022/11/04 03:55:25;;;;;;;;;;;;;;;15.96;75.20;99957.03;1296372;22;609;-79
2022/11/04 03:56:15;;;;;;;;;;;;;;;15.96;75.18;99959.72;1297974;22;692;-79
2022/11/04 03:57:06;;;;;;;;;;;;;;;15.94;75.28;99954.50;1297843;22;628;-79
2022/11/04 03:57:56;;;;;;;;;;;;;;;15.93;75.44;99955.53;1297992;22;605;-79
2022/11/04 03:58:47;;;;;;;;;;;;;;;15.93;75.68;99955.53;1298084;22;597;-79
2022/11/04 03:59:37;;;;;;;;;;;;;;;15.95;75.07;99950.81;1297853;22;633;-79
2022/11/04 04:00:27;;;;;;;;;;;;;;;15.93;75.19;99950.16;1297825;22;634;-79
2022/11/04 04:01:18;;;;;;;;;;;;;;;15.95;75.32;99952.66;1297822;22;679;-79
2022/11/04 04:02:08;;;;;;;;;;;;;;;15.97;75.35;99947.97;1298103;22;699;-79
2022/11/04 04:02:59;;;;;;;;;;;;;;;15.96;75.06;99954.34;1297649;22;621;-79
2022/11/04 04:03:49;;;;;;;;;;;;;;;15.94;75.20;99953.69;1296824;22;700;-79
2022/11/04 04:04:40;;;;;;;;;;;;;;;15.94;75.07;99954.50;1296507;22;633;-79
2022/11/04 04:05:30;;;;;;;;;;;;;;;15.96;75.34;99955.19;1296961;22;617;-78
2022/11/04 04:06:21;;;;;;;;;;;;;;;15.97;75.20;99947.97;1297952;22;669;-79
2022/11/04 04:07:11;;;;;;;;;;;;;;;15.95;75.04;99953.50;1297968;22;609;-79
2022/11/04 04:08:02;;;;;;;;;;;;;;;15.94;75.28;99957.19;1297971;22;676;-80
2022/11/04 04:08:52;;;;;;;;;;;;;;;15.93;75.07;99958.22;1297803;22;632;-81
2022/11/04 04:09:42;;;;;;;;;;;;;;;15.94;75.31;99967.13;1297866;22;720;-80
2022/11/04 04:10:39;;;;;;;;;;;;;;;15.94;75.22;99951.00;1297325;22;653;-80
2022/11/04 04:11:29;;;;;;;;;;;;;;;15.94;75.13;99954.50;1296577;22;636;-79
2022/11/04 04:12:19;;;;;;;;;;;;;;;15.94;74.94;99959.06;1297251;22;664;-79
2022/11/04 04:13:10;;;;;;;;;;;;;;;15.96;75.42;99959.72;1297561;22;621;-79
2022/11/04 04:14:00;;;;;;;;;;;;;;;15.96;74.88;99957.03;1297798;22;637;-78
2022/11/04 04:14:51;;;;;;;;;;;;;;;15.92;75.00;99961.88;1298684;22;636;-79
2022/11/04 04:15:41;;;;;;;;;;;;;;;15.95;75.38;99963.41;1297946;22;628;-80
2022/11/04 04:16:31;;;;;;;;;;;;;;;15.94;75.19;99965.25;1297926;22;676;-79
2022/11/04 04:17:22;;;;;;;;;;;;;;;15.95;75.15;99960.72;1297883;22;629;-79
2022/11/04 04:18:12;;;;;;;;;;;;;;;15.94;75.32;99972.50;1297822;22;653;-80
2022/11/04 04:19:03;;;;;;;;;;;;;;;15.91;74.68;99968.25;1297723;22;668;-80
2022/11/04 04:19:53;;;;;;;;;;;;;;;15.93;75.06;99968.09;1297769;22;653;-81
2022/11/04 04:20:46;;;;;;;;;;;;;;;15.95;75.21;99968.78;1298074;22;609;-80
2022/11/04 04:21:37;;;;;;;;;;;;;;;15.94;75.04;99970.63;1298041;22;665;-81
2022/11/04 04:22:27;;;;;;;;;;;;;;;15.93;75.15;99968.97;1297812;22;657;-80
2022/11/04 04:27:54;;;;;;;;;;;;;;;15.90;75.20;99979.16;1296218;22;721;-81
2022/11/04 04:28:45;;;;;;;;;;;;;;;15.88;73.85;99981.16;1297720;22;657;-80
2022/11/04 04:29:35;;;;;;;;;;;;;;;15.89;75.06;99986.38;1297648;22;644;-80
2022/11/04 04:30:26;;;;;;;;;;;;;;;15.91;74.86;99983.53;1297899;22;626;-80
2022/11/04 04:31:48;;;;;;;;;;;;;;;15.93;74.92;99981.53;1297734;22;605;-80
2022/11/04 04:32:26;;;;;;;;;;;;;;;15.91;74.96;99980.84;1297084;22;660;-80
2022/11/04 04:33:17;;;;;;;;;;;;;;;15.91;75.20;99987.06;1297725;22;657;-80
2022/11/04 04:34:07;;;;;;;;;;;;;;;15.92;75.04;99982.53;1297806;22;637;-80
2022/11/04 04:36:07;;;;;;;;;;;;;;;15.90;74.85;99984.53;1296244;22;680;-80
2022/11/04 04:36:57;;;;;;;;;;;;;;;15.90;75.16;99981.84;1297793;22;618;-80
2022/11/04 04:37:47;;;;;;;;;;;;;;;15.90;75.09;99995.28;1297799;22;641;-80
2022/11/04 04:45:33;;;;;;;;;;;;;;;15.87;74.19;99998.28;1296254;22;680;-79
2022/11/04 04:46:24;;;;;;;;;;;;;;;15.89;74.54;99998.97;1297538;22;625;-79
2022/11/04 04:47:18;;;;;;;;;;;;;;;15.89;74.39;99993.59;1297774;22;668;-79
2022/11/04 04:48:09;;;;;;;;;;;;;;;15.88;74.64;99998.13;1297939;22;621;-79
2022/11/04 04:48:59;;;;;;;;;;;;;;;15.90;74.80;100003.34;1297948;22;640;-78
2022/11/04 04:49:50;;;;;;;;;;;;;;;15.91;74.40;99999.66;1297843;22;644;-78
2022/11/04 04:50:40;;;;;;;;;;;;;;;15.88;74.34;99999.97;1297428;22;1095;-78
2022/11/04 04:51:30;;;;;;;;;;;;;;;15.86;74.28;99996.59;1297719;22;600;-77
2022/11/04 04:52:21;;;;;;;;;;;;;;;15.88;74.35;99994.59;1297908;22;624;-78
2022/11/04 04:53:11;;;;;;;;;;;;;;;15.88;74.43;99998.13;1297656;22;621;-78
2022/11/04 04:54:02;;;;;;;;;;;;;;;15.88;74.48;99999.97;1297890;22;668;-77
2022/11/04 04:54:52;;;;;;;;;;;;;;;15.89;73.98;100007.03;1297693;22;781;-78
2022/11/04 04:55:42;;;;;;;;;;;;;;;15.88;74.11;100005.34;1297788;22;653;-79
2022/11/04 04:56:33;;;;;;;;;;;;;;;15.87;74.05;100011.72;1297665;22;614;-78
2022/11/04 04:57:23;;;;;;;;;;;;;;;15.88;74.23;100002.66;1297757;22;617;-79
2022/11/04 04:58:14;;;;;;;;;;;;;;;15.87;74.43;100006.34;1298012;22;640;-78
2022/11/04 04:59:04;;;;;;;;;;;;;;;15.88;74.22;100008.88;1297704;22;616;-78
2022/11/04 04:59:55;;;;;;;;;;;;;;;15.87;74.31;100009.03;1296748;22;617;-78
2022/11/04 05:00:45;;;;;;;;;;;;;;;15.88;74.16;100016.09;1297842;22;617;-79